Time;durP1;ratioP1;P1;durP2;ratioP2;P2;SDS_P1;SDS_P2;PMS_P1;PMS_P2;Temp;Humidity;BMP_temperature;BMP_pressure;BME280_temperature;BME280_humidity;BME280_pressure;Samples;Min_cycle;Max_cycle;Signal;HPM_P1;HPM_P2
2021/03/21 00:04:32;;;;;;;59.68;26.70;;;;;;;-0.46;45.28;99513.33;252275;1152;115119;-80
2021/03/21 00:09:34;;;;;;;65.03;28.78;;;;;;;-0.53;45.33;99507.30;252156;1146;115325;-80
2021/03/21 00:14:37;;;;;;;65.20;27.48;;;;;;;-0.58;45.12;99499.51;252219;1153;115028;-73
2021/03/21 00:20:16;;;;;;;67.83;28.60;;;;;;;-0.55;45.83;99494.22;252364;1144;114670;-73
2021/03/21 00:25:22;;;;;;;64.63;26.23;;;;;;;-0.57;45.51;99493.39;252196;1153;115317;-73
2021/03/21 00:30:34;;;;;;;67.68;28.45;;;;;;;-0.56;45.68;99479.43;252222;1146;115560;-73
2021/03/21 00:35:36;;;;;;;58.00;23.83;;;;;;;-0.52;46.08;99477.65;251802;1153;115949;-80
2021/03/21 00:40:39;;;;;;;64.55;28.33;;;;;;;-0.56;45.90;99468.11;252242;1146;115095;-73
2021/03/21 00:45:41;;;;;;;66.70;25.80;;;;;;;-0.60;46.21;99463.80;252234;1152;116572;-80
2021/03/21 00:50:44;;;;;;;60.63;25.67;;;;;;;-0.64;46.24;99454.27;252216;1145;114760;-79
2021/03/21 00:55:47;;;;;;;63.77;25.70;;;;;;;-0.68;46.40;99449.93;252204;1152;115028;-80
2021/03/21 01:00:56;;;;;;;67.88;28.13;;;;;;;-0.67;46.01;99441.23;252187;1146;115460;-81
2021/03/21 01:06:02;;;;;;;74.35;29.45;;;;;;;-0.64;46.51;99433.36;252231;1153;114688;-81
2021/03/21 01:11:09;;;;;;;76.30;31.97;;;;;;;-0.63;46.87;99427.24;252223;1145;115894;-72
2021/03/21 01:23:44;;;;;;;79.23;32.53;;;;;;;-0.72;46.79;99399.45;251754;1145;115251;-74
2021/03/21 01:28:47;;;;;;;78.95;35.00;;;;;;;-0.76;47.28;99396.00;251951;1153;115024;-74
2021/03/21 01:33:50;;;;;;;92.30;36.23;;;;;;;-0.80;47.35;99394.31;252163;1148;115069;-73
2021/03/21 01:38:54;;;;;;;80.60;33.80;;;;;;;-0.82;47.67;99385.61;250886;1153;115134;-73
2021/03/21 01:43:58;;;;;;;87.13;35.67;;;;;;;-0.85;47.92;99375.22;252305;1145;115183;-76
2021/03/21 01:49:21;;;;;;;86.47;36.28;;;;;;;-0.88;47.64;99370.03;251146;1153;115220;-75
2021/03/21 01:54:24;;;;;;;96.75;38.20;;;;;;;-0.92;47.96;99364.83;250954;1146;115013;-80
2021/03/21 01:59:35;;;;;;;81.85;32.55;;;;;;;-0.92;48.33;99363.08;252247;1153;115344;-74
2021/03/21 02:04:37;;;;;;;93.73;36.70;;;;;;;-0.96;48.37;99349.19;252237;1145;114911;-80
2021/03/21 02:09:56;;;;;;;80.68;33.88;;;;;;;-0.98;48.36;99352.72;252558;1153;114902;-74
2021/03/21 02:15:25;;;;;;;87.53;35.37;;;;;;;-0.99;48.67;99335.30;251627;1145;115122;-79
2021/03/21 02:20:39;;;;;;;79.13;33.03;;;;;;;-1.07;48.71;99317.11;252288;1152;114963;-80
2021/03/21 02:26:23;;;;;;;82.30;34.13;;;;;;;-1.20;48.70;99315.50;252376;1146;114686;-72
2021/03/21 02:31:46;;;;;;;84.10;34.47;;;;;;;-1.34;48.89;99310.42;252251;1153;114979;-72
2021/03/21 02:37:04;;;;;;;84.18;34.53;;;;;;;-1.32;49.46;99305.20;252203;1147;114810;-72
2021/03/21 02:42:16;;;;;;;78.47;31.50;;;;;;;-1.28;49.65;99294.70;252179;1153;115737;-72
2021/03/21 02:47:28;;;;;;;72.17;28.87;;;;;;;-1.35;49.11;99279.13;252292;1146;114865;-73
2021/03/21 02:52:48;;;;;;;68.27;28.63;;;;;;;-1.39;49.34;99270.46;252256;1153;115111;-73
2021/03/21 03:05:04;;;;;;;59.60;27.60;;;;;;;-1.37;49.35;99250.41;252298;1153;115404;-73
2021/03/21 03:10:14;;;;;;;61.13;26.50;;;;;;;-1.37;49.61;99252.16;250979;1146;215093;-79
2021/03/21 03:15:17;;;;;;;57.25;26.00;;;;;;;-1.40;49.55;99237.38;251233;1144;114978;-80
2021/03/21 03:20:34;;;;;;;43.00;18.75;;;;;;;-1.40;49.45;99229.55;252243;1146;114999;-73
2021/03/21 03:25:49;;;;;;;58.05;25.05;;;;;;;-1.45;49.49;99211.34;251119;1153;115204;-80
2021/03/21 03:31:08;;;;;;;62.03;26.80;;;;;;;-1.50;49.17;99194.00;252243;1146;114682;-72
2021/03/21 03:36:14;;;;;;;61.25;25.50;;;;;;;-1.58;49.42;99188.02;252028;1152;115026;-79
2021/03/21 03:42:03;;;;;;;57.27;24.83;;;;;;;-1.64;49.43;99175.03;252229;1146;115383;-80
2021/03/21 03:47:32;;;;;;;62.00;25.15;;;;;;;-1.65;49.39;99168.09;251598;1148;115140;-73
2021/03/21 03:53:07;;;;;;;54.13;24.08;;;;;;;-1.69;49.86;99162.05;252153;1152;114803;-73
2021/03/21 03:58:22;;;;;;;55.38;23.63;;;;;;;-1.67;49.74;99157.66;252253;1146;114687;-80
2021/03/21 04:03:24;;;;;;;50.67;22.57;;;;;;;-1.63;49.19;99150.66;252219;1153;114839;-73
2021/03/21 04:08:43;;;;;;;50.63;21.38;;;;;;;-1.64;49.27;99123.70;251056;1146;115361;-79
2021/03/21 04:13:55;;;;;;;51.47;24.23;;;;;;;-1.71;49.09;99111.62;252233;1153;115396;-74
2021/03/21 04:19:07;;;;;;;48.78;20.50;;;;;;;-1.72;49.31;99102.93;252180;1146;114826;-73
2021/03/21 04:24:17;;;;;;;43.77;20.83;;;;;;;-1.75;49.31;99104.72;252282;1153;115435;-73
2021/03/21 04:29:26;;;;;;;53.57;21.20;;;;;;;-1.80;49.23;99096.06;252157;1146;114749;-80
2021/03/21 04:34:30;;;;;;;43.63;19.08;;;;;;;-1.82;49.03;99100.45;252239;1153;117162;-73
2021/03/21 04:39:36;;;;;;;44.95;20.18;;;;;;;-1.88;48.99;99093.55;252307;1145;114820;-80
2021/03/21 04:44:55;;;;;;;44.03;17.80;;;;;;;-1.85;48.90;99090.05;252275;1153;116156;-80
2021/03/21 04:49:59;;;;;;;42.07;19.73;;;;;;;-1.89;48.95;99076.18;251460;1153;115444;-73
2021/03/21 04:55:06;;;;;;;41.90;17.93;;;;;;;-1.84;48.95;99074.37;252375;1145;114592;-72
2021/03/21 05:00:15;;;;;;;46.70;18.38;;;;;;;-1.80;49.01;99065.66;250360;1152;114720;-74
2021/03/21 05:05:27;;;;;;;41.00;17.93;;;;;;;-1.81;48.85;99066.52;252219;1146;114786;-80
2021/03/21 05:10:33;;;;;;;35.20;15.95;;;;;;;-1.80;48.46;99062.16;252171;1153;115189;-73
2021/03/21 05:15:35;;;;;;;36.98;17.40;;;;;;;-1.74;48.89;99062.09;251593;1145;115519;-74
2021/03/21 05:20:56;;;;;;;35.13;16.50;;;;;;;-1.69;49.16;99044.66;252358;1152;114707;-74
2021/03/21 05:26:06;;;;;;;34.65;15.63;;;;;;;-1.61;48.68;99041.94;252198;1153;114842;-81
2021/03/21 05:31:10;;;;;;;34.95;13.53;;;;;;;-1.56;48.51;99029.67;252268;1153;114852;-74
2021/03/21 05:36:27;;;;;;;27.50;12.17;;;;;;;-1.48;48.81;99026.09;249917;1153;115987;-71
2021/03/21 05:47:52;;;;;;;29.55;10.65;;;;;;;-1.32;48.61;99010.23;252212;1145;114806;-75
2021/03/21 05:53:19;;;;;;;23.02;10.98;;;;;;;-1.26;48.56;99007.50;250738;1152;114876;-79
2021/03/21 05:58:46;;;;;;;20.50;8.80;;;;;;;-1.10;48.19;98998.56;252247;1145;114838;-79
2021/03/21 06:04:10;;;;;;;;;;;;;;;-1.07;48.02;98992.43;250080;1152;114622;-74
2021/03/21 06:09:41;;;;;;;16.65;8.90;;;;;;;-1.05;48.26;98988.06;252345;1153;118390;-79
2021/03/21 06:15:08;;;;;;;18.98;8.28;;;;;;;-0.83;47.83;98985.94;252126;1145;114873;-77
2021/03/21 06:20:23;;;;;;;17.20;8.40;;;;;;;-0.59;47.93;98972.44;252328;1153;114725;-71
2021/03/21 06:25:59;;;;;;;14.65;7.50;;;;;;;-0.42;47.85;98956.45;252269;1146;114639;-77
2021/03/21 06:31:11;;;;;;;16.33;7.87;;;;;;;-0.35;47.70;98957.19;248874;1153;114783;-75
2021/03/21 06:36:40;;;;;;;16.23;7.05;;;;;;;-0.12;47.72;98931.45;250984;1145;114817;-69
2021/03/21 06:42:20;;;;;;;17.30;7.20;;;;;;;0.01;47.16;98923.35;252198;1153;114723;-69
2021/03/21 06:47:34;;;;;;;14.73;6.88;;;;;;;0.10;46.97;98904.82;252253;1145;114519;-69
2021/03/21 06:53:15;;;;;;;16.23;5.80;;;;;;;0.18;46.57;98893.30;251954;1153;114508;-75
2021/03/21 06:58:23;;;;;;;12.60;6.15;;;;;;;0.28;47.00;98891.34;250097;1150;114694;-76
2021/03/21 07:04:03;;;;;;;9.37;5.10;;;;;;;0.49;46.66;98881.27;252078;1153;114640;-76
2021/03/21 07:09:25;;;;;;;8.30;4.70;;;;;;;0.59;46.40;98881.00;250904;1153;114346;-78
2021/03/21 07:15:03;;;;;;;9.50;4.80;;;;;;;0.66;45.74;98866.86;250192;1153;114449;-80
2021/03/21 07:20:59;;;;;;;9.38;4.38;;;;;;;0.74;45.27;98865.80;252199;1145;114671;-71
2021/03/21 07:26:20;;;;;;;10.30;4.63;;;;;;;0.73;45.43;98862.33;252205;1145;114453;-71
2021/03/21 07:31:46;;;;;;;10.13;4.25;;;;;;;0.73;45.47;98858.86;252231;1153;114520;-70
2021/03/21 07:37:14;;;;;;;11.08;4.60;;;;;;;0.76;45.21;98841.30;252196;1145;114645;-80
2021/03/21 07:42:29;;;;;;;11.63;4.80;;;;;;;0.81;45.27;98833.31;250847;1153;114880;-82
2021/03/21 07:47:45;;;;;;;8.87;4.93;;;;;;;0.84;45.12;98828.00;250785;1145;114702;-83
2021/03/21 07:53:03;;;;;;;10.00;4.53;;;;;;;0.90;45.36;98830.47;252265;1153;114324;-80
2021/03/21 07:58:31;;;;;;;11.53;4.60;;;;;;;0.93;44.50;98822.53;252273;1146;114705;-81
2021/03/21 08:04:03;;;;;;;11.30;4.85;;;;;;;0.90;44.48;98817.37;250769;1153;114830;-81
2021/03/21 08:09:19;;;;;;;8.85;4.75;;;;;;;0.88;44.75;98808.67;252293;1146;114600;-81
2021/03/21 08:14:26;;;;;;;11.30;4.58;;;;;;;0.84;44.34;98812.28;251311;1153;114498;-78
2021/03/21 08:19:32;;;;;;;10.50;4.77;;;;;;;0.84;44.12;98791.33;251612;1146;114421;-73
2021/03/21 08:24:43;;;;;;;8.90;4.70;;;;;;;0.85;44.53;98804.41;252252;1152;114855;-73
2021/03/21 08:30:10;;;;;;;8.83;4.30;;;;;;;0.90;44.90;98783.31;252224;1145;114379;-72
2021/03/21 08:35:22;;;;;;;9.75;4.70;;;;;;;0.96;44.58;98780.53;252318;1152;114438;-72
2021/03/21 08:40:24;;;;;;;12.50;4.73;;;;;;;1.05;44.87;98782.88;252274;1146;114339;-74
2021/03/21 08:45:36;;;;;;;10.55;4.75;;;;;;;1.13;44.90;98754.72;250946;1152;114753;-73
2021/03/21 08:50:42;;;;;;;9.23;4.85;;;;;;;1.27;44.98;98753.46;252245;1146;115429;-73
2021/03/21 08:55:44;;;;;;;11.58;4.25;;;;;;;1.33;44.47;98748.90;252303;1153;114554;-74
2021/03/21 09:00:47;;;;;;;11.45;5.13;;;;;;;1.36;44.33;98746.19;250702;1144;114715;-74
2021/03/21 09:05:54;;;;;;;10.60;4.68;;;;;;;1.36;44.35;98747.95;252309;1153;114838;-75
2021/03/21 09:11:12;;;;;;;9.98;4.48;;;;;;;1.48;44.65;98747.57;252257;1146;114927;-75
2021/03/21 09:16:15;;;;;;;13.27;5.03;;;;;;;1.58;44.56;98767.38;252277;1153;116995;-75
2021/03/21 09:21:24;;;;;;;11.05;5.20;;;;;;;1.65;44.87;98741.81;252113;1145;115095;-75
2021/03/21 09:26:39;;;;;;;16.50;6.63;;;;;;;1.78;45.17;98740.53;252152;1153;114658;-73
2021/03/21 09:31:42;;;;;;;;;;;;;;;1.97;45.07;98730.33;252208;1146;114231;-74
2021/03/21 09:36:51;;;;;;;14.68;5.35;;;;;;;2.12;44.93;98742.08;251440;1153;102276;-73
2021/03/21 09:41:55;;;;;;;10.93;5.33;;;;;;;2.12;44.91;98736.83;251808;1146;115215;-77
2021/03/21 09:47:18;;;;;;;9.38;5.40;;;;;;;2.08;45.13;98728.20;252102;1153;115111;-73
2021/03/21 09:52:41;;;;;;;11.00;5.17;;;;;;;2.03;45.58;98724.00;252284;1146;114655;-74
2021/03/21 09:58:10;;;;;;;14.67;5.30;;;;;;;2.07;45.61;98715.11;252281;1152;115061;-73
2021/03/21 10:03:21;;;;;;;11.50;4.88;;;;;;;2.16;46.13;98730.56;252088;1146;115754;-83
2021/03/21 10:08:52;;;;;;;10.73;6.10;;;;;;;2.28;46.69;98719.67;252224;1152;115760;-82
2021/03/21 10:13:55;;;;;;;11.10;5.43;;;;;;;2.44;46.73;98703.38;251358;1146;114576;-80
2021/03/21 10:18:59;;;;;;;11.30;5.95;;;;;;;2.63;47.06;98708.86;252449;1153;114532;-81
2021/03/21 10:24:26;;;;;;;11.70;6.50;;;;;;;2.69;48.02;98700.77;252088;1146;115011;-80
2021/03/21 10:30:07;;;;;;;11.13;5.97;;;;;;;2.74;48.19;98709.33;250534;1146;114816;-81
2021/03/21 10:35:33;;;;;;;12.95;6.25;;;;;;;2.59;48.49;98708.11;251829;1153;117763;-82
2021/03/21 10:40:35;;;;;;;15.20;6.10;;;;;;;2.53;49.33;98700.44;252243;1146;115024;-82
2021/03/21 10:45:37;;;;;;;8.83;5.27;;;;;;;2.49;49.68;98696.21;251893;1153;114842;-81
2021/03/21 10:50:46;;;;;;;14.48;6.80;;;;;;;2.48;49.90;98724.25;251872;1146;114255;-71
2021/03/21 10:56:07;;;;;;;13.27;6.83;;;;;;;2.29;50.20;98708.25;252095;1153;114853;-80
2021/03/21 11:01:34;;;;;;;15.60;8.10;;;;;;;2.17;50.99;98699.92;252173;1146;114894;-79
2021/03/21 11:06:50;;;;;;;14.28;7.68;;;;;;;2.08;51.66;98691.45;252359;1152;114617;-72
2021/03/21 11:11:54;;;;;;;18.98;8.38;;;;;;;2.00;52.10;98675.09;252351;1146;114712;-83
2021/03/21 11:17:00;;;;;;;14.23;8.60;;;;;;;1.94;52.14;98679.68;252106;1152;114674;-88
2021/03/21 11:22:47;;;;;;;14.63;8.03;;;;;;;1.74;52.95;98680.36;251873;1145;115461;-86
2021/03/21 11:27:50;;;;;;;12.48;7.60;;;;;;;1.56;53.38;98680.04;252274;1152;115167;-80
2021/03/21 11:32:53;;;;;;;16.60;8.27;;;;;;;1.49;53.97;98675.02;252229;1145;114495;-74
2021/03/21 11:37:59;;;;;;;14.10;8.95;;;;;;;1.43;54.43;98676.08;251471;1152;114784;-85
2021/03/21 11:43:20;;;;;;;18.70;8.93;;;;;;;1.47;54.95;98682.94;252221;1146;114912;-83
2021/03/21 11:48:26;;;;;;;12.13;6.43;;;;;;;1.51;55.23;98673.21;252278;1152;114582;-87
2021/03/21 11:53:36;;;;;;;13.37;7.50;;;;;;;1.48;55.54;98654.95;249108;1146;114155;-75
2021/03/21 11:58:51;;;;;;;18.03;9.53;;;;;;;1.50;55.88;98653.16;251754;1153;115212;-76
2021/03/21 12:03:58;;;;;;;16.17;9.07;;;;;;;1.55;56.41;98644.20;252172;1145;115130;-82
2021/03/21 12:09:11;;;;;;;15.83;8.90;;;;;;;1.51;56.60;98637.36;252121;1145;114646;-75
2021/03/21 12:14:25;;;;;;;17.90;9.20;;;;;;;1.50;56.95;98646.14;251915;1153;114648;-75
2021/03/21 12:19:39;;;;;;;16.63;8.43;;;;;;;1.53;56.82;98638.17;251773;1153;115208;-76
2021/03/21 12:24:55;;;;;;;19.63;9.38;;;;;;;1.57;56.73;98626.67;251592;1146;114781;-85
2021/03/21 12:30:20;;;;;;;18.97;8.70;;;;;;;1.67;56.66;98618.52;250552;1146;115470;-74
2021/03/21 12:35:22;;;;;;;;;;;;;;;1.72;57.23;98608.72;251829;1147;115466;-79
2021/03/21 12:40:36;;;;;;;15.33;8.95;;;;;;;1.80;56.91;98593.56;252302;1153;101594;-76
2021/03/21 12:46:01;;;;;;;16.80;8.40;;;;;;;1.93;56.90;98575.64;251686;1146;114988;-76
2021/03/21 12:51:25;;;;;;;15.50;8.67;;;;;;;1.98;56.83;98552.74;251440;1144;114422;-74
2021/03/21 12:56:28;;;;;;;17.53;10.03;;;;;;;2.08;57.29;98560.23;252186;1146;114510;-74
2021/03/21 13:01:30;;;;;;;18.88;9.00;;;;;;;2.11;56.96;98560.13;252215;1153;114864;-78
2021/03/21 13:06:33;;;;;;;17.23;8.95;;;;;;;2.16;57.17;98543.35;252213;1146;114717;-76
2021/03/21 13:11:37;;;;;;;18.93;10.60;;;;;;;2.18;56.92;98539.77;252009;1152;115092;-79
2021/03/21 13:16:40;;;;;;;16.33;9.18;;;;;;;2.27;57.02;98530.69;252178;1146;115119;-81
2021/03/21 13:21:43;;;;;;;18.60;10.28;;;;;;;2.35;57.33;98528.66;252220;1153;114744;-84
2021/03/21 13:26:45;;;;;;;19.85;10.55;;;;;;;2.34;57.24;98521.66;252277;1146;114487;-83
2021/03/21 13:31:47;;;;;;;20.67;10.30;;;;;;;2.33;56.94;98517.34;252253;1152;115049;-82
2021/03/21 13:36:50;;;;;;;16.88;9.55;;;;;;;2.30;57.14;98525.32;252198;1147;114717;-82
2021/03/21 13:41:52;;;;;;;19.47;10.47;;;;;;;2.29;57.29;98502.61;252161;1152;114740;-84
2021/03/21 13:46:55;;;;;;;18.75;10.38;;;;;;;2.32;57.39;98492.86;252291;1146;115260;-87
2021/03/21 13:51:57;;;;;;;19.75;10.60;;;;;;;2.32;57.54;98484.98;252225;1153;114817;-83
2021/03/21 13:57:00;;;;;;;15.57;8.63;;;;;;;2.28;57.77;98482.54;252284;1147;114718;-83
2021/03/21 14:02:03;;;;;;;18.30;9.83;;;;;;;2.26;57.31;98485.20;252013;1148;114689;-83
2021/03/21 14:07:05;;;;;;;12.83;7.63;;;;;;;2.29;57.55;98468.48;248512;1145;114795;-83
2021/03/21 14:12:08;;;;;;;13.80;7.80;;;;;;;2.29;57.69;98457.98;252021;1152;115014;-82
2021/03/21 14:17:11;;;;;;;14.10;8.43;;;;;;;2.26;57.84;98458.95;252202;1146;114730;-83
2021/03/21 14:22:15;;;;;;;13.43;9.03;;;;;;;2.25;57.74;98456.40;252233;1152;114853;-82
2021/03/21 14:27:18;;;;;;;14.63;8.08;;;;;;;2.27;58.37;98437.02;252162;1145;114927;-80
2021/03/21 14:32:20;;;;;;;13.60;8.68;;;;;;;2.24;58.19;98431.04;252211;1152;114711;-82
2021/03/21 14:37:23;;;;;;;14.93;9.13;;;;;;;2.29;58.07;98437.84;251486;1153;114596;-81
2021/03/21 14:42:26;;;;;;;16.40;9.25;;;;;;;2.33;58.52;98443.82;252076;1153;114806;-72
2021/03/21 14:47:28;;;;;;;14.60;8.53;;;;;;;2.31;58.35;98420.27;252156;1145;114962;-72
2021/03/21 14:52:31;;;;;;;14.05;8.60;;;;;;;2.33;58.13;98428.07;252227;1153;115207;-71
2021/03/21 14:57:34;;;;;;;17.33;10.20;;;;;;;2.31;58.49;98417.64;252153;1145;115276;-72
2021/03/21 15:02:36;;;;;;;17.78;9.80;;;;;;;2.32;58.47;98418.49;252187;1153;116106;-72
2021/03/21 15:07:39;;;;;;;16.75;10.23;;;;;;;2.28;58.44;98414.28;252194;1146;114725;-72
2021/03/21 15:12:42;;;;;;;16.98;10.65;;;;;;;2.32;58.91;98406.22;252228;1153;114853;-72
2021/03/21 15:17:45;;;;;;;14.30;9.07;;;;;;;2.32;58.42;98397.49;252208;1146;114787;-72
2021/03/21 15:22:49;;;;;;;15.77;9.23;;;;;;;2.28;58.36;98393.28;252257;1153;114802;-74
2021/03/21 15:27:52;;;;;;;15.00;8.87;;;;;;;2.28;58.29;98401.16;252145;1146;115788;-75
2021/03/21 15:32:55;;;;;;;14.73;9.20;;;;;;;2.24;58.57;98387.30;252206;1152;114967;-83
2021/03/21 15:37:58;;;;;;;15.98;8.80;;;;;;;2.19;58.45;98388.38;252094;1146;115489;-82
2021/03/21 15:43:02;;;;;;;14.80;8.65;;;;;;;2.21;58.55;98381.28;252272;1152;114841;-79
2021/03/21 15:48:06;;;;;;;15.40;9.50;;;;;;;2.22;58.27;98377.77;252223;1146;115027;-82
2021/03/21 15:53:13;;;;;;;15.55;8.95;;;;;;;2.24;58.48;98368.92;252315;1152;114933;-82
2021/03/21 15:58:15;;;;;;;14.78;9.10;;;;;;;2.20;58.71;98359.43;252279;1146;114641;-81
2021/03/21 16:03:17;;;;;;;16.37;8.97;;;;;;;2.19;58.78;98360.36;252311;1153;114834;-78
2021/03/21 16:08:21;;;;;;;16.98;9.25;;;;;;;2.14;58.63;98357.07;252320;1146;114476;-81
2021/03/21 16:13:23;;;;;;;16.35;9.78;;;;;;;2.08;59.08;98352.91;251221;1152;114691;-82
2021/03/21 16:18:26;;;;;;;18.03;10.00;;;;;;;2.07;59.00;98361.70;251191;1146;114543;-84
2021/03/21 16:23:30;;;;;;;17.58;11.08;;;;;;;2.04;59.36;98347.84;252179;1152;114829;-83
2021/03/21 16:28:34;;;;;;;15.73;9.10;;;;;;;2.03;59.03;98344.34;252026;1153;115154;-83
2021/03/21 16:33:37;;;;;;;17.20;10.58;;;;;;;1.97;59.22;98343.72;252291;1152;114943;-80
2021/03/21 16:38:39;;;;;;;18.18;10.38;;;;;;;2.00;59.67;98352.33;252191;1146;114838;-83
2021/03/21 16:43:43;;;;;;;19.73;10.87;;;;;;;1.97;60.29;98354.22;251196;1152;115000;-84
2021/03/21 16:48:47;;;;;;;21.98;12.53;;;;;;;1.95;60.29;98348.19;252183;1145;115256;-83
2021/03/21 16:53:54;;;;;;;22.65;13.25;;;;;;;1.96;60.21;98345.50;252286;1153;114744;-83
2021/03/21 16:58:56;;;;;;;23.38;14.05;;;;;;;1.94;61.01;98335.97;252169;1146;115476;-84
2021/03/21 17:03:59;;;;;;;24.28;13.50;;;;;;;1.99;60.70;98339.28;252246;1152;114715;-83
2021/03/21 17:09:01;;;;;;;22.60;12.70;;;;;;;1.96;61.10;98328.91;252275;1146;115124;-82
2021/03/21 17:14:18;;;;;;;23.80;13.57;;;;;;;1.93;60.93;98331.64;252338;1152;115711;-83
2021/03/21 17:19:21;;;;;;;20.47;13.03;;;;;;;1.90;61.17;98335.23;252283;1145;114501;-88
2021/03/21 17:24:23;;;;;;;23.35;13.60;;;;;;;1.82;61.31;98326.81;251700;1146;115247;-89
2021/03/21 17:29:25;;;;;;;27.10;14.20;;;;;;;1.78;61.46;98322.60;251022;1146;114664;-85
2021/03/21 17:34:28;;;;;;;23.07;13.23;;;;;;;1.73;61.38;98321.91;252271;1153;114816;-86
2021/03/21 17:39:30;;;;;;;22.68;13.23;;;;;;;1.70;61.97;98329.89;252238;1145;114703;-85
2021/03/21 17:44:33;;;;;;;24.83;15.05;;;;;;;1.68;61.84;98329.95;252063;1153;114636;-85
2021/03/21 17:49:35;;;;;;;28.83;16.00;;;;;;;1.70;62.47;98322.02;252206;1145;114780;-86
2021/03/21 17:54:40;;;;;;;26.97;15.07;;;;;;;1.71;62.57;98334.24;249962;1146;114968;-87
2021/03/21 17:59:43;;;;;;;;;;;;;;;1.69;62.38;98336.91;250019;1146;115078;-83
2021/03/21 18:04:46;;;;;;;28.85;16.25;;;;;;;1.63;62.90;98326.64;250411;1152;103072;-82
2021/03/21 18:09:48;;;;;;;28.88;16.23;;;;;;;1.62;62.87;98331.03;252271;1145;114348;-82
2021/03/21 18:14:51;;;;;;;25.03;15.70;;;;;;;1.62;62.92;98338.90;251060;1152;115039;-83
2021/03/21 18:19:53;;;;;;;24.40;16.50;;;;;;;1.62;63.39;98331.03;249602;1144;114965;-82
2021/03/21 18:24:56;;;;;;;23.30;14.70;;;;;;;1.64;63.21;98334.47;252090;1152;115436;-85
2021/03/21 18:29:58;;;;;;;26.97;16.30;;;;;;;1.60;63.73;98338.13;252245;1145;115942;-84
2021/03/21 18:35:01;;;;;;;25.57;16.53;;;;;;;1.54;63.81;98343.59;252192;1152;114789;-87
2021/03/21 18:40:06;;;;;;;26.55;16.43;;;;;;;1.48;63.46;98333.31;252283;1146;114761;-89
2021/03/21 18:45:11;;;;;;;28.67;17.80;;;;;;;1.54;63.76;98340.97;252165;1153;114965;-83
2021/03/21 18:50:14;;;;;;;;;;;;;;;1.57;64.34;98346.09;251393;1146;114802;-85
2021/03/21 18:55:17;;;;;;;30.23;18.80;;;;;;;1.57;63.77;98338.23;251903;1152;101827;-85
2021/03/21 19:00:27;;;;;;;32.30;17.40;;;;;;;1.59;64.39;98333.77;252175;1145;115022;-76
2021/03/21 19:05:30;;;;;;;31.33;18.55;;;;;;;1.65;64.06;98327.45;252173;1153;115250;-75
2021/03/21 19:10:36;;;;;;;32.98;19.43;;;;;;;1.69;64.13;98330.81;252119;1146;115885;-75
2021/03/21 19:15:39;;;;;;;31.90;18.30;;;;;;;1.74;64.64;98340.23;252150;1153;114864;-76
2021/03/21 19:20:42;;;;;;;31.77;19.30;;;;;;;1.75;64.55;98335.83;252106;1147;114812;-75
2021/03/21 19:25:45;;;;;;;29.75;19.05;;;;;;;1.80;64.62;98332.13;252219;1153;114621;-81
2021/03/21 19:30:48;;;;;;;32.83;20.00;;;;;;;1.88;64.35;98334.45;252154;1146;114814;-74
2021/03/21 19:35:53;;;;;;;30.03;18.53;;;;;;;1.94;64.51;98336.84;252134;1153;114851;-74
2021/03/21 19:41:00;;;;;;;31.95;19.85;;;;;;;1.95;64.08;98335.92;252178;1145;114919;-76
2021/03/21 19:46:05;;;;;;;33.97;19.87;;;;;;;2.00;64.54;98333.11;252110;1152;115418;-74
2021/03/21 19:51:13;;;;;;;32.88;18.38;;;;;;;1.95;64.10;98329.83;252099;1146;114909;-78
2021/03/21 19:56:16;;;;;;;32.85;20.08;;;;;;;1.92;64.56;98320.30;252098;1152;114814;-84
2021/03/21 20:01:18;;;;;;;32.88;19.85;;;;;;;1.99;64.30;98326.16;252197;1145;115852;-86
2021/03/21 20:06:21;;;;;;;32.07;20.43;;;;;;;1.99;64.75;98328.78;251544;1153;115026;-87
2021/03/21 20:11:25;;;;;;;32.20;19.35;;;;;;;2.01;64.70;98329.59;251407;1153;114863;-86
2021/03/21 20:16:30;;;;;;;36.63;19.33;;;;;;;2.03;64.45;98327.75;252181;1153;114973;-86
2021/03/21 20:21:33;;;;;;;36.43;20.77;;;;;;;2.02;64.71;98329.52;252216;1153;114751;-88
2021/03/21 20:26:36;;;;;;;39.03;22.47;;;;;;;2.06;64.98;98332.88;250988;1146;116000;-88
2021/03/21 20:31:39;;;;;;;34.60;20.75;;;;;;;1.99;64.55;98328.78;251927;1152;114765;-82
2021/03/21 20:36:42;;;;;;;39.50;21.47;;;;;;;2.06;64.78;98335.50;252191;1146;114594;-82
2021/03/21 20:41:44;;;;;;;38.28;22.25;;;;;;;2.05;65.04;98324.16;252154;1153;114669;-82
2021/03/21 20:46:47;;;;;;;38.63;21.93;;;;;;;2.03;65.07;98325.13;252002;1145;114699;-82
2021/03/21 20:51:51;;;;;;;40.98;25.45;;;;;;;2.09;65.42;98325.73;252142;1153;114906;-81
2021/03/21 20:56:53;;;;;;;41.10;25.18;;;;;;;2.19;65.18;98325.38;252196;1145;114740;-81
2021/03/21 21:01:56;;;;;;;38.93;23.08;;;;;;;2.21;65.12;98323.53;252188;1153;115115;-82
2021/03/21 21:06:59;;;;;;;38.70;22.88;;;;;;;2.17;65.03;98325.42;251196;1146;114784;-81
2021/03/21 21:12:02;;;;;;;36.73;21.57;;;;;;;2.20;64.92;98330.56;251919;1152;114838;-82
2021/03/21 21:17:06;;;;;;;33.67;20.50;;;;;;;2.26;65.40;98324.22;252173;1147;114674;-81
2021/03/21 21:22:08;;;;;;;31.57;19.23;;;;;;;2.37;65.56;98337.77;252222;1153;114823;-82
2021/03/21 21:27:11;;;;;;;35.23;21.53;;;;;;;2.43;65.53;98340.14;252223;1146;114842;-82
2021/03/21 21:32:13;;;;;;;35.57;21.40;;;;;;;2.39;65.33;98335.09;252220;1153;114969;-82
2021/03/21 21:37:16;;;;;;;32.28;21.43;;;;;;;2.39;65.47;98333.31;252033;1146;115420;-81
2021/03/21 21:42:19;;;;;;;32.97;21.10;;;;;;;2.43;65.37;98340.14;252234;1153;114806;-82
2021/03/21 21:47:21;;;;;;;33.53;21.35;;;;;;;2.45;65.52;98348.83;252209;1146;114851;-82
2021/03/21 21:52:24;;;;;;;33.90;22.10;;;;;;;2.46;65.43;98344.42;252261;1153;114741;-83
2021/03/21 21:57:26;;;;;;;35.03;22.53;;;;;;;2.50;65.67;98349.48;252164;1146;114950;-84
2021/03/21 22:02:29;;;;;;;36.50;22.95;;;;;;;2.49;65.56;98349.56;252244;1152;114808;-80
2021/03/21 22:07:31;;;;;;;34.70;23.27;;;;;;;2.50;65.59;98351.26;252181;1145;115087;-80
2021/03/21 22:12:35;;;;;;;36.27;24.53;;;;;;;2.54;65.48;98356.31;252298;1153;114536;-80
2021/03/21 22:17:38;;;;;;;35.30;22.60;;;;;;;2.55;65.05;98357.20;252198;1146;115609;-78
2021/03/21 22:22:42;;;;;;;34.27;22.63;;;;;;;2.44;65.49;98362.85;252257;1153;114807;-79
2021/03/21 22:27:44;;;;;;;40.75;26.70;;;;;;;2.38;65.27;98373.63;252226;1145;115774;-79
2021/03/21 22:32:52;;;;;;;38.53;23.53;;;;;;;2.46;65.90;98375.94;252168;1153;115067;-82
2021/03/21 22:37:58;;;;;;;44.65;26.33;;;;;;;2.50;65.74;98383.63;252234;1148;115102;-82
2021/03/21 22:43:01;;;;;;;42.10;28.03;;;;;;;2.52;65.63;98383.58;252187;1152;114993;-83
2021/03/21 22:48:07;;;;;;;43.80;27.70;;;;;;;2.51;65.46;98385.32;252213;1147;114923;-79
2021/03/21 22:53:10;;;;;;;45.73;28.90;;;;;;;2.47;65.25;98373.23;252162;1153;115582;-78
2021/03/21 22:58:12;;;;;;;45.08;27.95;;;;;;;2.51;65.69;98377.44;252184;1146;115291;-82
2021/03/21 23:03:18;;;;;;;45.20;28.40;;;;;;;2.46;65.40;98374.16;251499;1152;114870;-83
2021/03/21 23:08:22;;;;;;;43.60;25.45;;;;;;;2.50;65.78;98377.52;252249;1148;115258;-83
2021/03/21 23:13:25;;;;;;;41.35;26.75;;;;;;;2.57;65.45;98373.73;252274;1153;114950;-82
2021/03/21 23:18:31;;;;;;;39.15;23.25;;;;;;;2.75;65.95;98375.63;252236;1146;114593;-83
2021/03/21 23:23:34;;;;;;;34.03;21.60;;;;;;;2.89;65.75;98375.05;252241;1153;114914;-83
2021/03/21 23:28:37;;;;;;;33.15;20.05;;;;;;;3.00;65.82;98379.84;251745;1146;114889;-80
2021/03/21 23:33:40;;;;;;;26.70;16.57;;;;;;;3.03;65.37;98383.20;250278;1152;115425;-79
2021/03/21 23:38:42;;;;;;;23.50;14.33;;;;;;;3.04;65.28;98387.53;249615;1153;114893;-78
2021/03/21 23:43:44;;;;;;;23.15;13.75;;;;;;;3.06;65.18;98383.08;252187;1153;114966;-77
2021/03/21 23:48:47;;;;;;;19.15;11.65;;;;;;;3.05;65.29;98385.75;252016;1145;115502;-77
2021/03/21 23:53:49;;;;;;;17.25;11.60;;;;;;;3.02;65.10;98399.91;252222;1153;114522;-78